Time;durP1;ratioP1;P1;durP2;ratioP2;P2;SDS_P1;SDS_P2;PMS_P1;PMS_P2;Temp;Humidity;BMP_temperature;BMP_pressure;BME280_temperature;BME280_humidity;BME280_pressure;Samples;Min_cycle;Max_cycle;Signal;HPM_P1;HPM_P2
2022/11/21 00:00:05;;;;;;;27.83;19.85;;;2.10;89.20;;;;;;4978715;28;20049;-87
2022/11/21 00:02:31;;;;;;;25.92;17.90;;;2.10;89.30;;;;;;4979088;28;20038;-88
2022/11/21 00:04:57;;;;;;;29.77;19.08;;;2.00;89.30;;;;;;4962802;28;20042;-88
2022/11/21 00:07:22;;;;;;;27.90;19.15;;;2.00;89.30;;;;;;4979079;28;20042;-87
2022/11/21 00:09:48;;;;;;;27.45;19.83;;;2.00;89.40;;;;;;4962506;28;20046;-89
2022/11/21 00:12:15;;;;;;;27.85;19.60;;;2.00;89.40;;;;;;4978853;28;20060;-87
2022/11/21 00:14:41;;;;;;;26.95;19.38;;;2.00;89.40;;;;;;4978545;28;20589;-88
2022/11/21 00:17:06;;;;;;;31.67;22.25;;;2.00;89.40;;;;;;4962531;28;20121;-86
2022/11/21 00:19:32;;;;;;;36.17;24.63;;;2.00;89.30;;;;;;4978295;28;20038;-86
2022/11/21 00:21:58;;;;;;;35.53;24.63;;;1.90;89.30;;;;;;4962514;28;20042;-88
2022/11/21 00:24:23;;;;;;;35.38;23.85;;;2.00;89.40;;;;;;4962346;28;20034;-87
2022/11/21 00:26:49;;;;;;;34.70;22.80;;;2.00;89.50;;;;;;4978364;28;20039;-87
2022/11/21 00:29:15;;;;;;;32.42;22.20;;;2.00;89.50;;;;;;4962399;28;20045;-88
2022/11/21 00:31:41;;;;;;;34.40;21.73;;;2.00;89.40;;;;;;4978550;28;20475;-88
2022/11/21 00:34:08;;;;;;;33.63;21.33;;;2.00;89.40;;;;;;4961993;28;20093;-88
2022/11/21 00:36:33;;;;;;;30.17;20.45;;;1.90;89.30;;;;;;4978366;28;20553;-89
2022/11/21 00:38:59;;;;;;;28.42;20.25;;;1.90;89.10;;;;;;4962383;28;20034;-87
2022/11/21 00:41:25;;;;;;;32.25;20.25;;;1.90;89.20;;;;;;4961953;28;20101;-87
2022/11/21 00:43:50;;;;;;;29.52;21.10;;;2.00;89.10;;;;;;4977905;28;20045;-89
2022/11/21 00:46:16;;;;;;;31.88;20.85;;;2.00;89.20;;;;;;4978063;28;20104;-88
2022/11/21 00:48:42;;;;;;;30.00;20.38;;;2.00;89.20;;;;;;4976872;28;20125;-87
2022/11/21 00:51:07;;;;;;;31.52;19.75;;;2.00;89.20;;;;;;4961768;28;20129;-87
2022/11/21 00:53:33;;;;;;;28.65;20.52;;;2.00;89.20;;;;;;4977900;28;20045;-88
2022/11/21 00:55:59;;;;;;;31.77;19.80;;;2.00;89.20;;;;;;4993895;28;20048;-88
2022/11/21 00:58:25;;;;;;;27.23;18.52;;;1.90;89.30;;;;;;4977415;28;20057;-88
2022/11/21 01:00:51;;;;;;;27.70;19.63;;;1.90;89.20;;;;;;4994004;28;20133;-86
2022/11/21 01:03:17;;;;;;;30.92;20.67;;;2.00;89.30;;;;;;4993784;28;20042;-89
2022/11/21 01:05:43;;;;;;;31.30;19.83;;;1.90;89.30;;;;;;4977619;28;20050;-87
2022/11/21 01:08:09;;;;;;;30.58;19.42;;;1.90;89.40;;;;;;4977592;28;20046;-87
2022/11/21 01:10:35;;;;;;;27.92;18.95;;;1.90;89.50;;;;;;4961481;28;20042;-87
2022/11/21 01:13:01;;;;;;;32.03;20.40;;;1.90;89.40;;;;;;4993564;28;20141;-87
2022/11/21 01:15:27;;;;;;;29.75;19.90;;;1.90;89.50;;;;;;4961393;28;20471;-86
2022/11/21 01:17:52;;;;;;;28.73;19.13;;;1.90;89.50;;;;;;4977379;28;20061;-85
2022/11/21 01:20:18;;;;;;;27.05;18.75;;;1.90;89.50;;;;;;4961210;28;20042;-88
2022/11/21 01:22:44;;;;;;;31.33;20.55;;;1.90;89.60;;;;;;4993492;28;20046;-87
2022/11/21 01:25:10;;;;;;;32.90;20.42;;;2.00;89.60;;;;;;4961136;28;20085;-88
2022/11/21 01:27:35;;;;;;;29.52;20.67;;;1.90;89.50;;;;;;4961168;28;20046;-87
2022/11/21 01:30:01;;;;;;;31.30;20.55;;;1.90;89.60;;;;;;4976993;28;20054;-87
2022/11/21 01:32:27;;;;;;;31.08;21.33;;;1.90;89.60;;;;;;4961311;28;20069;-87
2022/11/21 01:34:52;;;;;;;32.17;20.40;;;2.00;89.50;;;;;;4961024;28;20030;-87
2022/11/21 01:37:18;;;;;;;38.40;26.45;;;1.90;89.50;;;;;;4960922;28;20116;-87
2022/11/21 01:39:43;;;;;;;41.80;26.80;;;1.90;89.40;;;;;;4960892;28;20034;-88
2022/11/21 01:42:12;;;;;;;35.05;20.52;;;1.90;89.30;;;;;;4993037;28;20038;-87
2022/11/21 01:44:50;;;;;;;30.85;20.45;;;1.90;89.20;;;;;;4977272;28;20039;-88
2022/11/21 01:47:16;;;;;;;28.40;19.17;;;2.00;89.20;;;;;;4993516;28;20505;-88
2022/11/21 01:49:43;;;;;;;39.85;25.45;;;2.00;89.10;;;;;;4993089;28;20129;-87
2022/11/21 01:52:21;;;;;;;40.13;26.27;;;2.00;89.10;;;;;;4976736;28;20034;-88
2022/11/21 01:54:51;;;;;;;32.35;21.20;;;1.90;89.00;;;;;;4992898;28;20073;-87
2022/11/21 01:57:23;;;;;;;31.25;20.55;;;2.00;89.10;;;;;;4992868;28;20054;-86
2022/11/21 01:59:54;;;;;;;32.80;21.60;;;1.90;89.00;;;;;;4981166;28;20092;-85
2022/11/21 02:02:24;;;;;;;41.45;25.50;;;1.90;88.90;;;;;;4999518;28;20092;-87
2022/11/21 02:04:51;;;;;;;34.97;21.90;;;1.90;88.90;;;;;;4999715;28;20490;-89
2022/11/21 02:07:20;;;;;;;33.40;22.20;;;1.90;88.80;;;;;;4967385;28;20502;-89
2022/11/21 02:09:51;;;;;;;31.45;21.00;;;1.80;88.60;;;;;;4999992;28;20046;-85
2022/11/21 02:12:38;;;;;;;42.08;25.33;;;1.80;88.60;;;;;;5000039;28;20567;-88
2022/11/21 02:15:04;;;;;;;52.53;32.10;;;1.70;88.60;;;;;;4984026;28;20045;-86
2022/11/21 02:17:31;;;;;;;34.75;22.80;;;1.70;88.80;;;;;;4984780;28;20070;-86
2022/11/21 02:20:04;;;;;;;32.88;21.40;;;1.60;88.80;;;;;;4984250;28;20038;-86
2022/11/21 02:22:56;;;;;;;34.60;20.92;;;1.60;88.90;;;;;;5001746;28;20038;-86
2022/11/21 02:25:25;;;;;;;36.45;21.15;;;1.60;88.90;;;;;;5001978;28;20046;-86
2022/11/21 02:27:56;;;;;;;32.88;20.92;;;1.50;88.80;;;;;;5002311;28;20585;-87
2022/11/21 02:30:22;;;;;;;33.75;21.55;;;1.40;88.90;;;;;;5002852;28;20133;-86
2022/11/21 02:32:48;;;;;;;30.45;20.38;;;1.30;88.90;;;;;;4985812;28;20049;-85
2022/11/21 02:35:16;;;;;;;35.35;22.88;;;1.30;88.90;;;;;;4985913;28;20046;-86
2022/11/21 02:37:45;;;;;;;33.72;21.65;;;1.20;88.90;;;;;;4985950;28;20045;-85
2022/11/21 02:40:18;;;;;;;34.08;22.83;;;1.10;88.90;;;;;;5001732;28;20038;-86
2022/11/21 02:43:07;;;;;;;33.00;22.23;;;1.00;89.00;;;;;;5000836;28;20049;-88
2022/11/21 02:45:39;;;;;;;33.88;21.77;;;1.00;89.00;;;;;;4985219;28;20045;-88
2022/11/21 02:48:04;;;;;;;31.73;21.80;;;0.90;89.00;;;;;;5000870;28;20039;-86
2022/11/21 02:50:35;;;;;;;36.30;21.85;;;0.90;89.20;;;;;;4984528;28;20133;-86
2022/11/21 02:53:03;;;;;;;36.60;22.75;;;0.90;89.20;;;;;;5000136;28;20100;-85
2022/11/21 02:55:28;;;;;;;38.63;23.48;;;0.80;89.40;;;;;;4983979;28;20038;-88
2022/11/21 02:57:54;;;;;;;33.72;21.98;;;0.80;89.40;;;;;;4999481;28;20050;-87
2022/11/21 03:00:20;;;;;;;39.00;23.27;;;0.70;89.40;;;;;;4967321;28;20049;-86
2022/11/21 03:02:46;;;;;;;35.53;22.42;;;0.60;89.50;;;;;;4983258;28;20034;-88
2022/11/21 03:05:16;;;;;;;43.35;25.48;;;0.60;89.60;;;;;;5000706;28;20045;-87
2022/11/21 03:07:41;;;;;;;66.55;35.72;;;0.50;89.70;;;;;;5001506;28;20042;-87
2022/11/21 03:10:07;;;;;;;43.05;26.75;;;0.40;89.80;;;;;;4968888;28;20046;-88
2022/11/21 03:12:37;;;;;;;37.60;23.90;;;0.40;89.90;;;;;;4967464;28;20046;-86
2022/11/21 03:15:04;;;;;;;47.92;28.70;;;0.40;90.00;;;;;;4983408;28;20413;-86
2022/11/21 03:17:30;;;;;;;40.67;24.80;;;0.40;90.20;;;;;;4999259;28;20081;-85
2022/11/21 03:19:55;;;;;;;31.52;21.73;;;0.40;90.40;;;;;;4983523;28;20045;-87
2022/11/21 03:22:21;;;;;;;35.65;22.63;;;0.40;90.50;;;;;;4966916;28;20505;-86
2022/11/21 03:24:47;;;;;;;35.50;22.48;;;0.30;90.50;;;;;;4998785;28;20038;-86
2022/11/21 03:27:12;;;;;;;100.00;52.08;;;0.30;90.70;;;;;;4966887;28;20100;-86
2022/11/21 03:29:38;;;;;;;112.88;52.80;;;0.40;90.80;;;;;;4966876;28;20049;-86
2022/11/21 03:32:04;;;;;;;59.08;32.30;;;0.40;90.90;;;;;;4983416;28;20053;-85
2022/11/21 03:34:30;;;;;;;37.42;23.88;;;0.50;91.10;;;;;;4983117;28;20502;-87
2022/11/21 03:36:55;;;;;;;38.55;24.15;;;0.50;91.10;;;;;;4966550;28;20046;-86
2022/11/21 03:39:21;;;;;;;28.83;20.48;;;0.50;91.20;;;;;;4966770;28;20048;-87
2022/11/21 03:41:47;;;;;;;31.90;20.20;;;0.50;91.20;;;;;;4965853;28;20046;-87
2022/11/21 03:44:12;;;;;;;33.00;21.38;;;0.40;91.10;;;;;;4981592;28;20042;-85
2022/11/21 03:46:41;;;;;;;35.38;20.85;;;0.40;91.20;;;;;;4997599;28;20080;-87
2022/11/21 03:49:07;;;;;;;34.80;21.90;;;0.40;91.30;;;;;;4997440;28;20046;-85
2022/11/21 03:51:34;;;;;;;31.92;20.95;;;0.40;91.30;;;;;;4981141;28;20049;-87
2022/11/21 03:53:59;;;;;;;32.17;21.33;;;0.40;91.40;;;;;;4997053;28;20390;-88
2022/11/21 03:56:26;;;;;;;33.22;21.85;;;0.40;91.40;;;;;;4996571;28;20055;-85
2022/11/21 03:58:53;;;;;;;48.35;27.92;;;0.40;91.50;;;;;;4980126;28;20046;-85
2022/11/21 04:01:18;;;;;;;47.63;28.65;;;0.40;91.50;;;;;;4996371;28;20089;-86
2022/11/21 04:03:44;;;;;;;43.25;27.83;;;0.40;91.60;;;;;;4980545;28;20038;-86
2022/11/21 04:06:12;;;;;;;42.17;25.95;;;0.50;91.60;;;;;;4996609;28;20042;-88
2022/11/21 04:08:38;;;;;;;36.22;22.88;;;0.50;91.60;;;;;;4996445;28;20111;-86
2022/11/21 04:11:04;;;;;;;40.50;24.13;;;0.50;91.70;;;;;;4980467;28;20111;-86
2022/11/21 04:13:30;;;;;;;36.47;21.60;;;0.50;91.70;;;;;;4997202;28;20080;-88
2022/11/21 04:15:56;;;;;;;31.77;20.50;;;0.60;91.70;;;;;;4980109;28;20074;-87
2022/11/21 04:18:21;;;;;;;33.22;21.55;;;0.50;91.60;;;;;;4980008;28;20487;-86
2022/11/21 04:20:47;;;;;;;54.00;29.80;;;0.40;91.50;;;;;;4996231;28;20077;-86
2022/11/21 04:23:13;;;;;;;50.47;30.30;;;0.50;91.60;;;;;;4997343;28;20051;-85
2022/11/21 04:25:40;;;;;;;38.55;24.27;;;0.50;91.60;;;;;;4965215;28;20133;-86
2022/11/21 04:28:06;;;;;;;40.95;24.95;;;0.50;91.60;;;;;;4996707;28;20050;-88
2022/11/21 04:30:33;;;;;;;39.53;24.35;;;0.50;91.60;;;;;;4997040;28;20054;-86
2022/11/21 04:32:59;;;;;;;45.45;26.45;;;0.50;91.60;;;;;;4997205;28;20138;-85
2022/11/21 04:35:26;;;;;;;50.35;31.75;;;0.50;91.60;;;;;;4979909;28;20081;-86
2022/11/21 04:37:52;;;;;;;49.15;28.30;;;0.50;91.50;;;;;;4996184;28;20046;-85
2022/11/21 04:40:18;;;;;;;39.30;25.88;;;0.50;91.40;;;;;;4980608;28;20478;-85
2022/11/21 04:42:45;;;;;;;40.72;23.50;;;0.50;91.50;;;;;;4996777;28;20061;-87
2022/11/21 04:45:12;;;;;;;43.40;27.23;;;0.50;91.40;;;;;;4980932;28;20092;-84
2022/11/21 04:47:40;;;;;;;41.85;26.63;;;0.50;91.40;;;;;;4996768;28;20042;-86
2022/11/21 04:50:07;;;;;;;41.47;26.25;;;0.50;91.20;;;;;;4980493;28;20038;-87
2022/11/21 04:52:34;;;;;;;45.20;27.98;;;0.40;91.30;;;;;;4979570;28;20085;-84
2022/11/21 04:54:59;;;;;;;41.97;26.35;;;0.40;91.30;;;;;;4996056;28;20043;-87
2022/11/21 04:57:27;;;;;;;42.28;25.80;;;0.40;91.30;;;;;;4992756;28;20047;-86
2022/11/21 04:59:54;;;;;;;43.05;26.15;;;0.40;91.40;;;;;;4979661;28;20044;-89
2022/11/21 05:02:19;;;;;;;40.83;25.23;;;0.40;91.50;;;;;;4980014;28;20126;-84
2022/11/21 05:04:45;;;;;;;41.80;24.63;;;0.40;91.50;;;;;;4963604;28;20070;-85
2022/11/21 05:07:11;;;;;;;39.80;23.92;;;0.30;91.50;;;;;;4978876;28;20439;-86
2022/11/21 05:09:37;;;;;;;38.13;24.58;;;0.30;91.50;;;;;;4998774;28;20069;-85
2022/11/21 05:14:47;;;;;;;;;;;0.30;91.40;;;;;;4995121;28;20046;-86
2022/11/21 05:17:13;;;;;;;41.25;24.45;;;0.20;91.60;;;;;;4993907;28;19918;-88
2022/11/21 05:19:38;;;;;;;33.00;22.50;;;0.20;91.50;;;;;;4977957;28;20134;-86
2022/11/21 05:22:04;;;;;;;44.40;26.48;;;0.20;91.60;;;;;;4978118;28;20077;-87
2022/11/21 05:24:30;;;;;;;40.35;24.27;;;0.20;91.60;;;;;;4978460;28;20038;-86
2022/11/21 05:26:55;;;;;;;38.00;25.05;;;0.10;91.50;;;;;;4962057;28;20097;-85
2022/11/21 05:29:21;;;;;;;42.20;26.38;;;0.10;91.60;;;;;;4961490;28;20042;-87
2022/11/21 05:31:47;;;;;;;40.30;25.30;;;0.10;91.70;;;;;;4977188;28;20101;-86
2022/11/21 05:34:12;;;;;;;41.70;26.02;;;0.10;91.70;;;;;;4960648;28;20399;-86
2022/11/21 05:36:38;;;;;;;43.53;26.13;;;0.00;91.80;;;;;;4977073;28;20065;-85
2022/11/21 05:39:04;;;;;;;36.60;24.08;;;0.00;91.80;;;;;;4961065;28;20084;-87
2022/11/21 05:41:30;;;;;;;38.33;24.80;;;0.00;91.60;;;;;;4960959;28;20034;-86
2022/11/21 05:43:56;;;;;;;36.20;22.90;;;0.00;91.60;;;;;;4992832;28;20046;-87
2022/11/21 05:46:24;;;;;;;41.10;25.35;;;0.00;91.20;;;;;;4977005;28;20052;-87
2022/11/21 05:48:51;;;;;;;41.10;24.63;;;0.00;91.40;;;;;;4993561;28;20061;-86
2022/11/21 05:51:18;;;;;;;46.75;26.92;;;0.00;91.40;;;;;;4976806;28;20050;-87
2022/11/21 05:53:44;;;;;;;44.00;26.05;;;0.00;91.60;;;;;;4961144;28;20053;-86
2022/11/21 05:56:12;;;;;;;38.65;24.65;;;0.00;91.70;;;;;;4993158;28;20053;-87
2022/11/21 05:58:38;;;;;;;41.58;25.80;;;0.00;91.60;;;;;;4992568;28;20129;-87
2022/11/21 06:01:06;;;;;;;44.80;26.92;;;0.00;91.50;;;;;;4977102;28;20042;-86
2022/11/21 06:03:36;;;;;;;41.42;25.58;;;0.00;91.60;;;;;;4992757;28;20049;-85
2022/11/21 06:06:11;;;;;;;44.35;24.95;;;0.00;91.40;;;;;;4992856;28;20046;-87
2022/11/21 06:08:40;;;;;;;42.70;25.08;;;0.00;91.70;;;;;;4992896;28;20042;-86
2022/11/21 06:11:07;;;;;;;45.63;27.00;;;-3276.70;91.90;;;;;;4993041;28;20100;-86
2022/11/21 06:13:33;;;;;;;44.72;26.75;;;-3276.70;91.90;;;;;;4976827;28;20042;-86
2022/11/21 06:16:09;;;;;;;43.80;25.35;;;-3276.70;91.80;;;;;;4960772;28;20482;-87
2022/11/21 06:18:37;;;;;;;43.33;26.90;;;-3276.70;91.90;;;;;;4976919;28;20336;-87
2022/11/21 06:21:08;;;;;;;44.97;27.23;;;-3276.70;91.80;;;;;;4976792;28;20501;-88
2022/11/21 06:23:35;;;;;;;41.08;25.13;;;-3276.70;91.90;;;;;;4992879;28;20121;-90
2022/11/21 06:26:03;;;;;;;41.67;26.02;;;-3276.60;91.80;;;;;;4976602;28;20549;-88
2022/11/21 06:28:32;;;;;;;48.85;29.13;;;-3276.60;91.80;;;;;;4992798;28;20077;-85
2022/11/21 06:31:03;;;;;;;45.60;27.60;;;-3276.50;91.70;;;;;;4992639;28;20133;-87
2022/11/21 06:33:29;;;;;;;41.28;25.23;;;-3276.50;91.80;;;;;;4992545;28;20038;-86
2022/11/21 06:35:54;;;;;;;45.47;26.90;;;-3276.50;91.70;;;;;;4976285;28;20100;-87
2022/11/21 06:38:20;;;;;;;44.45;26.52;;;-3276.40;91.80;;;;;;4993104;28;20082;-87
2022/11/21 06:40:46;;;;;;;47.17;28.45;;;-3276.40;91.50;;;;;;4960458;28;20034;-85
2022/11/21 06:43:12;;;;;;;45.13;28.42;;;-3276.30;91.90;;;;;;4976566;28;20067;-86
2022/11/21 06:45:37;;;;;;;47.53;27.40;;;-3276.30;91.70;;;;;;4992520;28;20482;-85
2022/11/21 06:48:03;;;;;;;44.90;28.02;;;-3276.20;92.00;;;;;;4979822;28;20048;-86
2022/11/21 06:50:32;;;;;;;47.97;27.25;;;-3276.30;92.40;;;;;;4963678;28;20054;-84
2022/11/21 06:52:58;;;;;;;46.58;27.42;;;-3276.30;92.30;;;;;;4964434;28;20052;-84
2022/11/21 06:55:26;;;;;;;51.53;29.92;;;-3276.30;92.50;;;;;;4979640;28;20473;-85
2022/11/21 06:57:52;;;;;;;51.08;28.17;;;-3276.30;92.70;;;;;;4995386;28;20050;-85
2022/11/21 07:00:19;;;;;;;49.95;28.95;;;-3276.30;92.90;;;;;;4979382;28;20046;-86
2022/11/21 07:02:45;;;;;;;53.85;28.27;;;-3276.30;92.90;;;;;;4995537;28;20042;-85
2022/11/21 07:05:11;;;;;;;58.67;30.73;;;-3276.40;92.90;;;;;;4962906;28;20042;-85
2022/11/21 07:07:37;;;;;;;53.00;28.92;;;-3276.40;93.00;;;;;;4962932;28;20042;-86
2022/11/21 07:10:03;;;;;;;54.95;29.85;;;-3276.40;93.00;;;;;;4963125;28;20046;-86
2022/11/21 07:15:13;;;;;;;50.65;28.85;;;-3276.50;93.00;;;;;;4980579;28;20042;-86
2022/11/21 07:17:39;;;;;;;48.72;28.20;;;-3276.50;93.00;;;;;;4990404;28;20101;-86
2022/11/21 07:20:05;;;;;;;49.83;29.80;;;-3276.50;93.20;;;;;;4995874;28;20478;-85
2022/11/21 07:22:31;;;;;;;48.13;28.73;;;-3276.60;93.20;;;;;;4979424;28;20040;-85
2022/11/21 07:24:56;;;;;;;53.35;28.95;;;-3276.60;93.10;;;;;;4979553;28;20038;-86
2022/11/21 07:27:22;;;;;;;53.67;30.55;;;-3276.60;93.30;;;;;;4995305;28;20407;-87
2022/11/21 07:29:48;;;;;;;51.08;30.45;;;-3276.70;93.40;;;;;;4994032;28;20042;-85
2022/11/21 07:32:14;;;;;;;52.20;29.13;;;-3276.70;93.40;;;;;;4974157;28;20057;-85
2022/11/21 07:34:39;;;;;;;52.60;30.55;;;0.00;93.50;;;;;;4986224;28;20046;-86
2022/11/21 07:37:05;;;;;;;52.60;31.77;;;0.00;93.40;;;;;;4971607;28;20092;-86
2022/11/21 07:39:31;;;;;;;56.42;30.55;;;0.00;93.50;;;;;;4974128;28;20085;-84
2022/11/21 07:41:56;;;;;;;49.55;29.63;;;0.10;93.60;;;;;;4948745;28;20069;-85
2022/11/21 07:44:22;;;;;;;51.17;29.58;;;0.10;93.60;;;;;;4982301;28;20057;-87
2022/11/21 07:46:48;;;;;;;52.38;29.08;;;0.10;93.30;;;;;;4973111;28;20054;-84
2022/11/21 07:49:13;;;;;;;53.25;31.52;;;0.20;93.30;;;;;;4987579;28;20073;-84
2022/11/21 07:51:39;;;;;;;52.30;28.88;;;0.20;93.40;;;;;;4956255;28;20404;-86
2022/11/21 07:54:05;;;;;;;50.40;28.58;;;0.20;93.50;;;;;;4955585;28;20130;-83
2022/11/21 07:56:31;;;;;;;52.95;30.63;;;0.20;93.40;;;;;;4953612;28;20042;-83
2022/11/21 07:58:56;;;;;;;56.40;30.80;;;0.30;93.70;;;;;;4960484;28;20065;-85
2022/11/21 08:01:22;;;;;;;57.00;29.88;;;0.30;93.70;;;;;;4971033;28;20047;-84
2022/11/21 08:03:48;;;;;;;50.92;27.05;;;0.40;93.90;;;;;;4970861;28;20046;-85
2022/11/21 08:06:14;;;;;;;57.50;30.05;;;0.40;93.90;;;;;;4972135;28;20038;-85
2022/11/21 08:08:39;;;;;;;54.83;29.50;;;0.40;93.90;;;;;;4970621;28;20163;-85
2022/11/21 08:11:06;;;;;;;57.80;30.67;;;0.30;94.00;;;;;;4970033;28;20043;-88
2022/11/21 08:13:32;;;;;;;62.30;29.58;;;0.30;94.10;;;;;;4983488;28;20057;-87
2022/11/21 08:16:00;;;;;;;57.00;30.85;;;0.40;94.10;;;;;;4959141;28;20451;-86
2022/11/21 08:18:26;;;;;;;60.47;31.63;;;0.30;94.20;;;;;;4979158;28;20394;-87
2022/11/21 08:20:52;;;;;;;64.38;30.65;;;0.30;94.50;;;;;;4978720;28;20039;-90
2022/11/21 08:23:17;;;;;;;61.72;30.95;;;0.30;94.60;;;;;;4978549;28;20038;-89
2022/11/21 08:25:44;;;;;;;64.97;31.13;;;0.30;94.60;;;;;;4994435;28;20041;-88
2022/11/21 08:28:10;;;;;;;74.80;29.30;;;0.30;94.80;;;;;;4978458;28;20398;-88
2022/11/21 08:30:37;;;;;;;63.83;30.70;;;0.30;94.70;;;;;;4978322;28;20482;-87
2022/11/21 08:33:03;;;;;;;84.13;29.55;;;0.40;94.70;;;;;;4994636;28;20421;-87
2022/11/21 08:35:29;;;;;;;89.40;30.15;;;0.40;94.80;;;;;;4962339;28;20046;-88
2022/11/21 08:37:59;;;;;;;66.75;30.00;;;0.40;94.90;;;;;;4994324;28;20097;-87
2022/11/21 08:40:27;;;;;;;60.65;29.30;;;0.40;95.00;;;;;;4994269;28;20125;-87
2022/11/21 08:43:01;;;;;;;65.15;28.33;;;0.40;95.00;;;;;;4994435;28;20038;-86
2022/11/21 08:45:27;;;;;;;75.55;27.60;;;0.50;95.00;;;;;;4962427;28;20042;-88
2022/11/21 08:47:53;;;;;;;90.25;29.60;;;0.50;95.10;;;;;;4994462;28;20134;-87
2022/11/21 08:50:19;;;;;;;61.08;26.98;;;0.50;95.00;;;;;;4961964;28;20155;-87
2022/11/21 08:52:45;;;;;;;73.88;25.40;;;0.50;95.10;;;;;;4978237;28;20390;-88
2022/11/21 08:55:11;;;;;;;45.38;22.77;;;0.60;95.10;;;;;;4961582;28;20132;-86
2022/11/21 08:57:37;;;;;;;71.68;24.75;;;0.50;95.00;;;;;;4962042;28;20042;-86
2022/11/21 09:00:04;;;;;;;56.03;21.65;;;0.50;94.90;;;;;;4961461;28;20134;-86
2022/11/21 09:02:29;;;;;;;60.25;21.35;;;0.50;94.90;;;;;;4977802;28;20065;-87
2022/11/21 09:04:55;;;;;;;44.60;20.02;;;0.50;95.00;;;;;;4977927;28;20486;-87
2022/11/21 09:07:21;;;;;;;42.85;21.92;;;0.50;94.80;;;;;;4961537;28;20453;-87
2022/11/21 09:09:47;;;;;;;44.25;22.90;;;0.50;94.80;;;;;;4993312;28;20034;-87
2022/11/21 09:12:12;;;;;;;44.13;23.13;;;0.50;94.80;;;;;;4961464;28;20073;-86
2022/11/21 09:20:07;;;;;;;40.38;22.02;;;0.40;94.80;;;;;;4966072;28;20038;-87
2022/11/21 09:22:33;;;;;;;42.25;22.15;;;0.40;94.80;;;;;;4993549;28;20041;-87
2022/11/21 09:24:58;;;;;;;46.78;21.73;;;0.50;94.80;;;;;;4977390;28;20042;-88
2022/11/21 09:27:24;;;;;;;45.53;23.25;;;0.50;94.90;;;;;;4993353;28;20059;-86
2022/11/21 09:29:50;;;;;;;45.78;20.85;;;0.60;95.00;;;;;;4977391;28;20410;-87
2022/11/21 09:32:15;;;;;;;37.90;20.85;;;0.60;94.80;;;;;;4977631;28;20088;-87
2022/11/21 09:34:41;;;;;;;41.15;21.27;;;0.60;95.00;;;;;;4977263;28;20057;-88
2022/11/21 09:37:07;;;;;;;42.13;22.20;;;0.70;95.00;;;;;;4977208;28;20035;-87
2022/11/21 09:39:33;;;;;;;37.88;22.83;;;0.70;95.10;;;;;;4993294;28;20038;-87
2022/11/21 09:42:28;;;;;;;37.78;22.20;;;0.80;95.10;;;;;;4976920;28;20049;-87
2022/11/21 09:45:03;;;;;;;32.97;20.38;;;0.90;95.10;;;;;;4992972;28;20077;-87
2022/11/21 09:47:41;;;;;;;35.92;20.75;;;1.00;95.20;;;;;;4992963;28;20042;-86
2022/11/21 09:50:33;;;;;;;31.83;19.55;;;1.10;95.10;;;;;;4993288;28;20589;-87
2022/11/21 09:53:10;;;;;;;32.40;18.88;;;1.10;95.00;;;;;;4992870;28;20128;-87
2022/11/21 09:55:47;;;;;;;35.03;20.02;;;1.20;94.90;;;;;;4993260;28;20046;-87
2022/11/21 09:58:36;;;;;;;33.15;18.45;;;1.10;94.80;;;;;;4976831;28;20098;-86
2022/11/21 10:01:03;;;;;;;28.67;17.98;;;1.10;94.80;;;;;;4976712;28;20050;-87
2022/11/21 10:03:34;;;;;;;29.02;19.35;;;1.10;94.90;;;;;;4992842;28;20042;-87
2022/11/21 10:06:13;;;;;;;31.63;18.45;;;1.10;94.90;;;;;;4993214;28;20065;-89
2022/11/21 10:09:12;;;;;;;28.08;17.13;;;1.00;94.80;;;;;;4993204;28;20253;-86
2022/11/21 10:15:04;;;;;;;29.00;17.63;;;1.10;94.90;;;;;;4992950;28;20046;-87
2022/11/21 10:17:52;;;;;;;27.73;16.67;;;1.10;95.00;;;;;;4976796;28;20129;-87
2022/11/21 10:20:30;;;;;;;27.05;17.67;;;1.10;95.00;;;;;;4978104;28;20045;-89
2022/11/21 10:23:23;;;;;;;35.72;21.90;;;1.20;95.10;;;;;;4980647;28;20151;-87
2022/11/21 10:25:56;;;;;;;38.65;26.13;;;1.30;95.30;;;;;;4997045;28;20045;-88
2022/11/21 10:28:31;;;;;;;84.22;50.88;;;1.40;95.30;;;;;;4996798;28;20053;-88
2022/11/21 10:30:58;;;;;;;44.60;27.88;;;1.50;95.50;;;;;;4997097;28;20069;-87
2022/11/21 10:33:31;;;;;;;46.72;26.33;;;1.60;95.50;;;;;;4979215;28;20049;-87
2022/11/21 10:36:20;;;;;;;33.92;22.15;;;1.70;95.50;;;;;;4996412;28;20054;-88
2022/11/21 10:38:49;;;;;;;53.03;31.92;;;1.80;95.40;;;;;;4975965;28;20073;-90
2022/11/21 10:41:36;;;;;;;64.25;40.13;;;1.90;95.30;;;;;;4963672;28;20038;-88
2022/11/21 10:47:28;;;;;;;26.38;17.10;;;2.10;95.30;;;;;;4996808;28;20038;-87
2022/11/21 10:50:13;;;;;;;40.05;24.77;;;2.20;95.20;;;;;;4996416;28;20062;-87
2022/11/21 10:52:49;;;;;;;;;;;2.30;95.20;;;;;;4981055;28;20046;-87
2022/11/21 10:55:16;;;;;;;49.58;24.63;;;2.40;95.30;;;;;;4996273;28;19922;-88
2022/11/21 10:57:47;;;;;;;23.17;15.25;;;2.50;95.30;;;;;;4980118;28;20069;-87
2022/11/21 11:00:19;;;;;;;21.30;13.35;;;2.60;95.20;;;;;;4996411;28;20054;-88
2022/11/21 11:03:05;;;;;;;20.05;12.95;;;2.60;95.20;;;;;;4996383;28;20038;-89
2022/11/21 11:05:38;;;;;;;20.50;13.70;;;2.70;95.10;;;;;;4996204;28;20169;-88
2022/11/21 11:08:15;;;;;;;20.38;13.73;;;2.80;95.20;;;;;;4995995;28;20053;-89
2022/11/21 11:10:59;;;;;;;18.45;12.52;;;2.90;95.10;;;;;;4996496;28;20394;-89
2022/11/21 11:16:14;;;;;;;20.33;14.55;;;3.10;95.00;;;;;;4996024;28;20081;-88
2022/11/21 11:18:54;;;;;;;17.52;12.00;;;3.20;94.90;;;;;;4995899;28;20046;-89
2022/11/21 11:21:43;;;;;;;16.10;11.27;;;3.30;94.90;;;;;;4996095;28;20042;-88
2022/11/21 11:24:08;;;;;;;17.08;13.00;;;3.40;94.70;;;;;;4995899;28;20038;-88
2022/11/21 11:26:50;;;;;;;15.88;10.85;;;3.50;94.70;;;;;;4979757;28;20088;-89
2022/11/21 11:29:29;;;;;;;15.35;11.43;;;3.50;94.60;;;;;;4996093;28;20042;-89
2022/11/21 11:32:13;;;;;;;14.05;10.32;;;3.60;94.50;;;;;;4994851;28;20042;-88
2022/11/21 11:35:00;;;;;;;15.40;11.10;;;3.60;94.40;;;;;;4995802;28;20073;-88
2022/11/21 11:37:37;;;;;;;14.38;10.10;;;3.60;94.20;;;;;;4996063;28;20384;-89
2022/11/21 11:40:33;;;;;;;14.13;10.07;;;3.70;94.10;;;;;;4995573;28;20089;-89
2022/11/21 11:49:02;;;;;;;18.80;13.23;;;3.80;93.90;;;;;;4995354;28;20050;-89
2022/11/21 11:51:36;;;;;;;16.50;11.40;;;3.80;93.80;;;;;;4995583;28;20125;-88
2022/11/21 11:54:17;;;;;;;17.40;12.45;;;3.70;93.80;;;;;;4995465;28;20058;-91
2022/11/21 11:56:45;;;;;;;17.35;12.50;;;3.80;93.80;;;;;;4995364;28;20034;-88
2022/11/21 11:59:27;;;;;;;37.63;23.48;;;3.90;93.80;;;;;;4994779;28;20046;-89
2022/11/21 12:01:57;;;;;;;45.22;28.13;;;3.90;93.70;;;;;;4978912;28;20042;-90
2022/11/21 12:04:28;;;;;;;39.38;22.70;;;4.00;93.70;;;;;;4995385;28;20406;-89
2022/11/21 12:07:14;;;;;;;85.47;42.00;;;4.30;93.40;;;;;;4979564;28;20129;-89
2022/11/21 12:10:04;;;;;;;152.77;67.78;;;4.40;92.30;;;;;;4994891;28;20081;-88
2022/11/21 12:12:48;;;;;;;151.15;73.50;;;4.60;92.30;;;;;;4978938;28;20505;-90
2022/11/21 12:15:48;;;;;;;199.27;91.68;;;4.90;91.70;;;;;;4994803;28;20042;-88
2022/11/21 12:18:20;;;;;;;29.98;17.73;;;4.90;90.20;;;;;;4995153;28;20053;-90
2022/11/21 12:21:13;;;;;;;108.65;54.83;;;4.80;90.70;;;;;;4978966;28;20049;-88
2022/11/21 12:23:56;;;;;;;32.13;20.02;;;4.80;90.70;;;;;;4994823;28;20034;-89
2022/11/21 12:26:37;;;;;;;134.50;70.15;;;4.80;91.00;;;;;;4994857;28;20137;-89
2022/11/21 12:29:40;;;;;;;20.67;15.35;;;4.70;91.00;;;;;;4978604;28;20501;-90
2022/11/21 12:32:25;;;;;;;20.33;15.98;;;4.70;91.20;;;;;;4978500;28;20550;-91
2022/11/21 12:35:17;;;;;;;22.33;16.77;;;4.60;91.10;;;;;;4978462;28;20053;-89
2022/11/21 12:37:58;;;;;;;15.68;12.48;;;4.60;91.00;;;;;;4994104;28;20505;-90
2022/11/21 12:40:38;;;;;;;17.52;12.73;;;4.50;91.40;;;;;;4994606;28;20045;-89
2022/11/21 12:43:10;;;;;;;18.48;13.45;;;4.40;91.60;;;;;;4978591;28;20042;-88
2022/11/21 12:45:37;;;;;;;22.63;15.90;;;4.50;91.70;;;;;;4978512;28;20510;-90
2022/11/21 12:54:34;;;;;;;26.38;20.02;;;4.60;91.90;;;;;;4994997;28;20459;-89
2022/11/21 12:57:16;;;;;;;25.92;18.67;;;4.40;91.90;;;;;;4978624;28;20129;-88
2022/11/21 13:00:04;;;;;;;23.90;16.23;;;4.40;92.10;;;;;;4994404;28;20062;-89
2022/11/21 13:02:57;;;;;;;26.02;18.38;;;4.40;92.30;;;;;;4978320;28;20042;-89
2022/11/21 13:05:27;;;;;;;21.33;15.27;;;4.30;92.60;;;;;;4980022;28;20049;-88
2022/11/21 13:08:04;;;;;;;26.50;18.35;;;4.30;92.70;;;;;;4994949;28;20038;-88
2022/11/21 13:10:31;;;;;;;24.65;15.48;;;4.20;92.80;;;;;;4994432;28;20044;-89
2022/11/21 13:13:24;;;;;;;23.33;16.27;;;4.20;93.00;;;;;;4978157;28;20042;-90
2022/11/21 13:16:10;;;;;;;23.55;16.15;;;4.10;93.00;;;;;;4994199;28;20069;-88
2022/11/21 13:18:45;;;;;;;23.65;15.85;;;4.10;93.20;;;;;;4994286;28;20043;-89